Time;durP1;ratioP1;P1;durP2;ratioP2;P2;SDS_P1;SDS_P2;PMS_P1;PMS_P2;Temp;Humidity;BMP_temperature;BMP_pressure;BME280_temperature;BME280_humidity;BME280_pressure;Samples;Min_cycle;Max_cycle;Signal;HPM_P1;HPM_P2
2022/01/17 00:00:59;;;;;;;;;;;;;;;;;;2086955;28;19916;-82
2022/01/17 00:02:18;;;;;;;;;;;;;;;;;;2090465;28;19912;-81
2022/01/17 00:03:37;;;;;;;;;;;;;;;;;;2087966;28;20485;-81
2022/01/17 00:04:56;;;;;;;;;;;;;;;;;;2086672;28;19912;-80
2022/01/17 00:06:15;;;;;;;;;;;;;;;;;;2087254;28;20315;-81
2022/01/17 00:07:34;;;;;;;;;;;;;;;;;;2096888;28;19943;-82
2022/01/17 00:08:53;;;;;;;;;;;;;;;;;;2090519;28;19920;-82
2022/01/17 00:10:12;;;;;;;;;;;;;;;;;;2087333;28;19960;-82
2022/01/17 00:11:30;;;;;;;;;;;;;;;;;;2087634;28;19913;-81
2022/01/17 00:12:51;;;;;;;;;;;;;;;;;;2089755;28;19955;-82
2022/01/17 00:14:15;;;;;;;;;;;;;;;;;;2098035;28;20385;-82
2022/01/17 00:15:46;;;;;;;;;;;;;;;;;;2089686;28;19917;-81
2022/01/17 00:17:21;;;;;;;;;;;;;;;;;;2091472;28;19912;-81
2022/01/17 00:20:10;;;;;;;;;;;;;;;;;;2098310;28;19920;-81
2022/01/17 00:21:30;;;;;;;;;;;;;;;;;;2093412;28;19913;-81
2022/01/17 00:22:49;;;;;;;;;;;;;;;;;;2093232;28;19908;-82
2022/01/17 00:24:09;;;;;;;;;;;;;;;;;;2093896;28;19913;-80
2022/01/17 00:25:28;;;;;;;;;;;;;;;;;;2092818;28;19913;-81
2022/01/17 00:26:47;;;;;;;;;;;;;;;;;;2096144;28;19908;-80
2022/01/17 00:28:05;;;;;;;;;;;;;;;;;;2100518;28;19912;-79
2022/01/17 00:29:24;;;;;;;;;;;;;;;;;;2092549;28;20415;-80
2022/01/17 00:30:43;;;;;;;;;;;;;;;;;;2088207;28;20270;-80
2022/01/17 00:32:02;;;;;;;;;;;;;;;;;;2097787;28;19920;-80
2022/01/17 00:33:21;;;;;;;;;;;;;;;;;;2101886;28;19912;-80
2022/01/17 00:34:40;;;;;;;;;;;;;;;;;;2101688;28;19913;-80
2022/01/17 00:35:59;;;;;;;;;;;;;;;;;;2091401;28;19917;-80
2022/01/17 00:37:18;;;;;;;;;;;;;;;;;;2087880;28;19913;-80
2022/01/17 00:38:36;;;;;;;;;;;;;;;;;;2089205;28;19912;-80
2022/01/17 00:39:55;;;;;;;;;;;;;;;;;;2089665;28;20508;-80
2022/01/17 00:41:14;;;;;;;;;;;;;;;;;;2087459;28;19914;-80
2022/01/17 00:42:33;;;;;;;;;;;;;;;;;;2087857;28;20079;-79
2022/01/17 00:43:52;;;;;;;;;;;;;;;;;;2090269;28;19917;-80
2022/01/17 00:45:13;;;;;;;;;;;;;;;;;;2094265;28;19913;-81
2022/01/17 00:46:32;;;;;;;;;;;;;;;;;;2091212;28;19916;-80
2022/01/17 00:47:51;;;;;;;;;;;;;;;;;;2091542;28;19916;-80
2022/01/17 00:49:10;;;;;;;;;;;;;;;;;;2099527;28;19916;-80
2022/01/17 00:50:29;;;;;;;;;;;;;;;;;;2091947;28;19916;-79
2022/01/17 00:51:48;;;;;;;;;;;;;;;;;;2089281;28;20381;-80
2022/01/17 00:53:06;;;;;;;;;;;;;;;;;;2089125;28;19999;-80
2022/01/17 00:54:25;;;;;;;;;;;;;;;;;;2091795;28;19917;-79
2022/01/17 00:55:44;;;;;;;;;;;;;;;;;;2088421;28;19921;-80
2022/01/17 00:57:05;;;;;;;;;;;;;;;;;;2092234;28;19988;-80
2022/01/17 00:58:24;;;;;;;;;;;;;;;;;;2089433;28;19921;-81
2022/01/17 00:59:43;;;;;;;;;;;;;;;;;;2088667;28;19913;-80
2022/01/17 01:01:02;;;;;;;;;;;;;;;;;;2088907;28;20392;-80
2022/01/17 01:02:21;;;;;;;;;;;;;;;;;;2089318;28;20297;-82
2022/01/17 01:03:39;;;;;;;;;;;;;;;;;;2092729;28;19913;-82
2022/01/17 01:04:58;;;;;;;;;;;;;;;;;;2088382;28;19913;-80
2022/01/17 01:06:17;;;;;;;;;;;;;;;;;;2086285;28;20335;-79
2022/01/17 01:07:35;;;;;;;;;;;;;;;;;;2099649;28;20325;-80
2022/01/17 01:08:54;;;;;;;;;;;;;;;;;;2092588;28;19913;-80
2022/01/17 01:10:13;;;;;;;;;;;;;;;;;;2087179;28;19916;-80
2022/01/17 01:11:32;;;;;;;;;;;;;;;;;;2094403;28;19912;-81
2022/01/17 01:12:51;;;;;;;;;;;;;;;;;;2093556;28;20008;-81
2022/01/17 01:14:10;;;;;;;;;;;;;;;;;;2093986;28;19924;-81
2022/01/17 01:15:47;;;;;;;;;;;;;;;;;;2092830;28;19921;-82
2022/01/17 01:17:14;;;;;;;;;;;;;;;;;;2092661;28;19944;-81
2022/01/17 01:20:01;;;;;;;;;;;;;;;;;;2101419;28;19995;-80
2022/01/17 01:27:58;;;;;;;;;;;;;;;;;;2100291;28;19912;-81
2022/01/17 01:29:17;;;;;;;;;;;;;;;;;;2092330;28;19916;-82
2022/01/17 01:30:40;;;;;;;;;;;;;;;;;;2096722;28;20304;-79
2022/01/17 01:32:07;;;;;;;;;;;;;;;;;;2090113;28;19917;-81
2022/01/17 01:33:30;;;;;;;;;;;;;;;;;;2090835;28;19913;-81
2022/01/17 01:34:52;;;;;;;;;;;;;;;;;;2091831;28;19913;-82
2022/01/17 01:36:22;;;;;;;;;;;;;;;;;;2088087;28;19909;-81
2022/01/17 01:37:44;;;;;;;;;;;;;;;;;;2090372;28;19956;-81
2022/01/17 01:39:02;;;;;;;;;;;;;;;;;;2090933;28;19912;-82
2022/01/17 01:40:21;;;;;;;;;;;;;;;;;;2091912;28;19913;-81
2022/01/17 01:41:43;;;;;;;;;;;;;;;;;;2090364;28;19921;-82
2022/01/17 01:43:02;;;;;;;;;;;;;;;;;;2087962;28;19916;-82
2022/01/17 01:44:21;;;;;;;;;;;;;;;;;;2093840;28;19977;-81
2022/01/17 01:45:40;;;;;;;;;;;;;;;;;;2089453;28;19916;-81
2022/01/17 01:46:59;;;;;;;;;;;;;;;;;;2086360;28;20536;-81
2022/01/17 01:48:19;;;;;;;;;;;;;;;;;;2098112;28;19970;-81
2022/01/17 01:49:38;;;;;;;;;;;;;;;;;;2092334;28;19908;-82
2022/01/17 01:50:57;;;;;;;;;;;;;;;;;;2086623;28;19980;-82
2022/01/17 01:52:15;;;;;;;;;;;;;;;;;;2088120;28;20320;-83
2022/01/17 01:53:34;;;;;;;;;;;;;;;;;;2089224;28;20314;-82
2022/01/17 01:54:53;;;;;;;;;;;;;;;;;;2087465;28;20471;-81
2022/01/17 01:56:12;;;;;;;;;;;;;;;;;;2086946;28;20359;-81
2022/01/17 01:57:30;;;;;;;;;;;;;;;;;;2088460;28;20000;-82
2022/01/17 01:58:49;;;;;;;;;;;;;;;;;;2090574;28;19926;-81
2022/01/17 02:00:08;;;;;;;;;;;;;;;;;;2090939;28;19917;-82
2022/01/17 02:01:26;;;;;;;;;;;;;;;;;;2091858;28;19908;-82
2022/01/17 02:02:45;;;;;;;;;;;;;;;;;;2091711;28;19913;-81
2022/01/17 02:04:04;;;;;;;;;;;;;;;;;;2096043;28;20010;-81
2022/01/17 02:05:25;;;;;;;;;;;;;;;;;;2091796;28;19917;-81
2022/01/17 02:06:43;;;;;;;;;;;;;;;;;;2087905;28;19917;-80
2022/01/17 02:08:02;;;;;;;;;;;;;;;;;;2088732;28;19913;-81
2022/01/17 02:09:23;;;;;;;;;;;;;;;;;;2093806;28;19913;-82
2022/01/17 02:10:42;;;;;;;;;;;;;;;;;;2092109;28;20361;-83
2022/01/17 02:12:01;;;;;;;;;;;;;;;;;;2088530;28;19913;-81
2022/01/17 02:13:20;;;;;;;;;;;;;;;;;;2028104;28;1931121;-81
2022/01/17 02:14:39;;;;;;;;;;;;;;;;;;2101598;28;19912;-82
2022/01/17 02:15:57;;;;;;;;;;;;;;;;;;2092837;28;20480;-81
2022/01/17 02:17:19;;;;;;;;;;;;;;;;;;2091105;28;19925;-82
2022/01/17 02:18:38;;;;;;;;;;;;;;;;;;2092071;28;19912;-82
2022/01/17 02:20:05;;;;;;;;;;;;;;;;;;2089502;28;19916;-81
2022/01/17 02:21:45;;;;;;;;;;;;;;;;;;2097121;28;19916;-81
2022/01/17 02:23:06;;;;;;;;;;;;;;;;;;2091510;28;19917;-80
2022/01/17 02:24:25;;;;;;;;;;;;;;;;;;2089555;28;19913;-81
2022/01/17 02:25:44;;;;;;;;;;;;;;;;;;2086442;28;20385;-81
2022/01/17 02:27:03;;;;;;;;;;;;;;;;;;2095575;28;19916;-80
2022/01/17 02:28:22;;;;;;;;;;;;;;;;;;2090313;28;20451;-81
2022/01/17 02:29:41;;;;;;;;;;;;;;;;;;2090993;28;19917;-82
2022/01/17 02:31:00;;;;;;;;;;;;;;;;;;2090491;28;20444;-81
2022/01/17 02:32:18;;;;;;;;;;;;;;;;;;2087959;28;19912;-81
2022/01/17 02:33:37;;;;;;;;;;;;;;;;;;2089983;28;19962;-81
2022/01/17 02:34:56;;;;;;;;;;;;;;;;;;2096481;28;19908;-81
2022/01/17 02:36:15;;;;;;;;;;;;;;;;;;2090276;28;20042;-81
2022/01/17 02:37:34;;;;;;;;;;;;;;;;;;2086842;28;19956;-81
2022/01/17 02:38:53;;;;;;;;;;;;;;;;;;2088455;28;19912;-82
2022/01/17 02:40:11;;;;;;;;;;;;;;;;;;2096111;28;20277;-82
2022/01/17 02:41:30;;;;;;;;;;;;;;;;;;2091402;28;19917;-82
2022/01/17 02:42:51;;;;;;;;;;;;;;;;;;2087970;28;19916;-82
2022/01/17 02:44:10;;;;;;;;;;;;;;;;;;2088094;28;19917;-82
2022/01/17 02:46:53;;;;;;;;;;;;;;;;;;2095544;28;19928;-81
2022/01/17 02:48:13;;;;;;;;;;;;;;;;;;2089741;28;20015;-81
2022/01/17 02:49:31;;;;;;;;;;;;;;;;;;2098696;28;19913;-81
2022/01/17 02:50:50;;;;;;;;;;;;;;;;;;2093394;28;19913;-83
2022/01/17 02:52:09;;;;;;;;;;;;;;;;;;2088010;28;20358;-81
2022/01/17 02:53:28;;;;;;;;;;;;;;;;;;2087627;28;19925;-82
2022/01/17 02:54:47;;;;;;;;;;;;;;;;;;2086902;28;19908;-81
2022/01/17 02:56:05;;;;;;;;;;;;;;;;;;2086429;28;19921;-81
2022/01/17 02:57:28;;;;;;;;;;;;;;;;;;2089427;28;19958;-81
2022/01/17 02:58:47;;;;;;;;;;;;;;;;;;2090875;28;19939;-82
2022/01/17 03:00:06;;;;;;;;;;;;;;;;;;2087255;28;20357;-82
2022/01/17 03:01:24;;;;;;;;;;;;;;;;;;2090830;28;20334;-82
2022/01/17 03:02:48;;;;;;;;;;;;;;;;;;2088264;28;19909;-81
2022/01/17 03:04:07;;;;;;;;;;;;;;;;;;2084781;28;19916;-81
2022/01/17 03:05:26;;;;;;;;;;;;;;;;;;2089767;28;20286;-82
2022/01/17 03:06:44;;;;;;;;;;;;;;;;;;2095565;28;20345;-80
2022/01/17 03:08:03;;;;;;;;;;;;;;;;;;2088527;28;19920;-81
2022/01/17 03:09:24;;;;;;;;;;;;;;;;;;2086606;28;19912;-82
2022/01/17 03:10:43;;;;;;;;;;;;;;;;;;2087759;28;20336;-82
2022/01/17 03:12:02;;;;;;;;;;;;;;;;;;2086400;28;19913;-81
2022/01/17 03:13:21;;;;;;;;;;;;;;;;;;2094247;28;19917;-81
2022/01/17 03:14:40;;;;;;;;;;;;;;;;;;2097439;28;19912;-80
2022/01/17 03:15:59;;;;;;;;;;;;;;;;;;2091054;28;19912;-81
2022/01/17 03:17:18;;;;;;;;;;;;;;;;;;2088092;28;19917;-81
2022/01/17 03:18:39;;;;;;;;;;;;;;;;;;2087250;28;19917;-80
2022/01/17 03:19:58;;;;;;;;;;;;;;;;;;2091521;28;19909;-80
2022/01/17 03:21:17;;;;;;;;;;;;;;;;;;2097117;28;19913;-81
2022/01/17 03:22:36;;;;;;;;;;;;;;;;;;2087955;28;19929;-80
2022/01/17 03:23:55;;;;;;;;;;;;;;;;;;2088229;28;19916;-80
2022/01/17 03:25:13;;;;;;;;;;;;;;;;;;2084374;28;19952;-80
2022/01/17 03:26:32;;;;;;;;;;;;;;;;;;2089922;28;19909;-81
2022/01/17 03:27:50;;;;;;;;;;;;;;;;;;2083974;28;19948;-81
2022/01/17 03:29:09;;;;;;;;;;;;;;;;;;2089746;28;19916;-81
2022/01/17 03:30:30;;;;;;;;;;;;;;;;;;2089053;28;19912;-80
2022/01/17 03:31:49;;;;;;;;;;;;;;;;;;2096475;28;19909;-82
2022/01/17 03:33:08;;;;;;;;;;;;;;;;;;2097886;28;20277;-81
2022/01/17 03:34:27;;;;;;;;;;;;;;;;;;2086864;28;19952;-81
2022/01/17 03:35:45;;;;;;;;;;;;;;;;;;2085975;28;19913;-80
2022/01/17 03:37:04;;;;;;;;;;;;;;;;;;2088308;28;19908;-82
2022/01/17 03:38:23;;;;;;;;;;;;;;;;;;2089629;28;19912;-81
2022/01/17 03:39:42;;;;;;;;;;;;;;;;;;2091231;28;19913;-81
2022/01/17 03:41:02;;;;;;;;;;;;;;;;;;2087689;28;19916;-80
2022/01/17 03:42:21;;;;;;;;;;;;;;;;;;2088376;28;19912;-81
2022/01/17 03:43:40;;;;;;;;;;;;;;;;;;2087247;28;20406;-82
2022/01/17 03:45:00;;;;;;;;;;;;;;;;;;2096615;28;20354;-82
2022/01/17 03:46:19;;;;;;;;;;;;;;;;;;2100888;28;19912;-82
2022/01/17 03:47:38;;;;;;;;;;;;;;;;;;2091115;28;19908;-81
2022/01/17 03:48:57;;;;;;;;;;;;;;;;;;2086300;28;20344;-80
2022/01/17 03:50:16;;;;;;;;;;;;;;;;;;2087410;28;19917;-80
2022/01/17 03:51:34;;;;;;;;;;;;;;;;;;2090429;28;20431;-81
2022/01/17 03:52:53;;;;;;;;;;;;;;;;;;2097698;28;19916;-81
2022/01/17 03:54:12;;;;;;;;;;;;;;;;;;2092278;28;19913;-81
2022/01/17 03:55:33;;;;;;;;;;;;;;;;;;2087495;28;19916;-82
2022/01/17 03:56:52;;;;;;;;;;;;;;;;;;2088873;28;19944;-82
2022/01/17 03:58:11;;;;;;;;;;;;;;;;;;2092100;28;19916;-82
2022/01/17 03:59:30;;;;;;;;;;;;;;;;;;2098241;28;19916;-83
2022/01/17 04:00:49;;;;;;;;;;;;;;;;;;2092935;28;19909;-81
2022/01/17 04:02:08;;;;;;;;;;;;;;;;;;2089514;28;19991;-80
2022/01/17 04:03:27;;;;;;;;;;;;;;;;;;2087709;28;20043;-80
2022/01/17 04:04:46;;;;;;;;;;;;;;;;;;2092904;28;19912;-80
2022/01/17 04:06:04;;;;;;;;;;;;;;;;;;2088572;28;20488;-81
2022/01/17 04:07:23;;;;;;;;;;;;;;;;;;2086537;28;19913;-80
2022/01/17 04:08:42;;;;;;;;;;;;;;;;;;2087791;28;19917;-80
2022/01/17 04:10:01;;;;;;;;;;;;;;;;;;2088764;28;19917;-81
2022/01/17 04:11:20;;;;;;;;;;;;;;;;;;2091283;28;19912;-81
2022/01/17 04:12:38;;;;;;;;;;;;;;;;;;2098368;28;19976;-81
2022/01/17 04:13:57;;;;;;;;;;;;;;;;;;2090056;28;19916;-80
2022/01/17 04:15:16;;;;;;;;;;;;;;;;;;2086759;28;20406;-79
2022/01/17 04:16:35;;;;;;;;;;;;;;;;;;2098001;28;20343;-79
2022/01/17 04:17:54;;;;;;;;;;;;;;;;;;2093610;28;19912;-81
2022/01/17 04:19:13;;;;;;;;;;;;;;;;;;2088921;28;19921;-81
2022/01/17 04:20:32;;;;;;;;;;;;;;;;;;2088972;28;19916;-80
2022/01/17 04:21:51;;;;;;;;;;;;;;;;;;2094364;28;19912;-81
2022/01/17 04:23:10;;;;;;;;;;;;;;;;;;2091876;28;19932;-80
2022/01/17 04:24:29;;;;;;;;;;;;;;;;;;2085149;28;19999;-80
2022/01/17 04:25:49;;;;;;;;;;;;;;;;;;2088954;28;19917;-81
2022/01/17 04:27:08;;;;;;;;;;;;;;;;;;2092831;28;19909;-81
2022/01/17 04:28:27;;;;;;;;;;;;;;;;;;2092159;28;19913;-80
2022/01/17 04:29:45;;;;;;;;;;;;;;;;;;2089254;28;21181;-80
2022/01/17 04:31:04;;;;;;;;;;;;;;;;;;2094223;28;19913;-80
2022/01/17 04:32:23;;;;;;;;;;;;;;;;;;2098346;28;19912;-81
2022/01/17 04:33:42;;;;;;;;;;;;;;;;;;2092378;28;19921;-82
2022/01/17 04:35:01;;;;;;;;;;;;;;;;;;2087881;28;19912;-81
2022/01/17 04:36:20;;;;;;;;;;;;;;;;;;2089451;28;19908;-80
2022/01/17 04:37:39;;;;;;;;;;;;;;;;;;2091976;28;19912;-81
2022/01/17 04:38:57;;;;;;;;;;;;;;;;;;2093842;28;19916;-81
2022/01/17 04:40:16;;;;;;;;;;;;;;;;;;2089529;28;19917;-80
2022/01/17 04:41:38;;;;;;;;;;;;;;;;;;2092024;28;19908;-81
2022/01/17 04:42:57;;;;;;;;;;;;;;;;;;2094789;28;19954;-81
2022/01/17 04:45:58;;;;;;;;;;;;;;;;;;2086848;28;19913;-80
2022/01/17 04:47:17;;;;;;;;;;;;;;;;;;2090660;28;19910;-80
2022/01/17 04:48:35;;;;;;;;;;;;;;;;;;2089871;28;19913;-79
2022/01/17 04:49:54;;;;;;;;;;;;;;;;;;2087599;28;19920;-80
2022/01/17 04:51:13;;;;;;;;;;;;;;;;;;2093792;28;19916;-81
2022/01/17 04:52:32;;;;;;;;;;;;;;;;;;2093680;28;19908;-80
2022/01/17 04:54:13;;;;;;;;;;;;;;;;;;2097988;28;19921;-81
2022/01/17 04:55:29;;;;;;;;;;;;;;;;;;2097310;28;20300;-80
2022/01/17 04:56:48;;;;;;;;;;;;;;;;;;2091348;28;19912;-80
2022/01/17 04:58:07;;;;;;;;;;;;;;;;;;2094721;28;19940;-81
2022/01/17 04:59:26;;;;;;;;;;;;;;;;;;2096394;28;19912;-80
2022/01/17 05:00:47;;;;;;;;;;;;;;;;;;2091397;28;19917;-80
2022/01/17 05:02:12;;;;;;;;;;;;;;;;;;2092645;28;19913;-81
2022/01/17 05:03:31;;;;;;;;;;;;;;;;;;2091877;28;19913;-82
2022/01/17 05:04:51;;;;;;;;;;;;;;;;;;2085979;28;19912;-81
2022/01/17 05:06:09;;;;;;;;;;;;;;;;;;2088918;28;21076;-81
2022/01/17 05:07:28;;;;;;;;;;;;;;;;;;2089752;28;19913;-82
2022/01/17 05:08:54;;;;;;;;;;;;;;;;;;2090841;28;19916;-81
2022/01/17 05:10:13;;;;;;;;;;;;;;;;;;2091511;28;19916;-81
2022/01/17 05:11:32;;;;;;;;;;;;;;;;;;2093246;28;19909;-81
2022/01/17 05:12:54;;;;;;;;;;;;;;;;;;2091843;28;20352;-82
2022/01/17 05:14:13;;;;;;;;;;;;;;;;;;2088824;28;19929;-80
2022/01/17 05:15:42;;;;;;;;;;;;;;;;;;2096824;28;19996;-81
2022/01/17 05:17:35;;;;;;;;;;;;;;;;;;2102092;28;19909;-81
2022/01/17 05:19:59;;;;;;;;;;;;;;;;;;2098825;28;19913;-80
2022/01/17 05:21:18;;;;;;;;;;;;;;;;;;2090682;28;19995;-81
2022/01/17 05:22:37;;;;;;;;;;;;;;;;;;2090309;28;19916;-80
2022/01/17 05:23:56;;;;;;;;;;;;;;;;;;2088060;28;19916;-80
2022/01/17 05:25:15;;;;;;;;;;;;;;;;;;2093118;28;19917;-80
2022/01/17 05:26:34;;;;;;;;;;;;;;;;;;2092395;28;20297;-80
2022/01/17 05:27:52;;;;;;;;;;;;;;;;;;2086534;28;19917;-80
2022/01/17 05:29:11;;;;;;;;;;;;;;;;;;2085639;28;19921;-81
2022/01/17 05:30:30;;;;;;;;;;;;;;;;;;2087690;28;19916;-80
2022/01/17 05:31:49;;;;;;;;;;;;;;;;;;2088524;28;19908;-81
2022/01/17 05:33:07;;;;;;;;;;;;;;;;;;2090320;28;20416;-80
2022/01/17 05:34:26;;;;;;;;;;;;;;;;;;2085559;28;19916;-81
2022/01/17 05:35:57;;;;;;;;;;;;;;;;;;2088803;28;19921;-83
2022/01/17 05:37:16;;;;;;;;;;;;;;;;;;2090581;28;19923;-82
2022/01/17 05:38:35;;;;;;;;;;;;;;;;;;2087215;28;20409;-83
2022/01/17 05:39:54;;;;;;;;;;;;;;;;;;2090116;28;19917;-82
2022/01/17 05:41:12;;;;;;;;;;;;;;;;;;2094147;28;19916;-85
2022/01/17 05:42:31;;;;;;;;;;;;;;;;;;2091757;28;19909;-87
2022/01/17 05:43:50;;;;;;;;;;;;;;;;;;2085690;28;19987;-86
2022/01/17 05:45:12;;;;;;;;;;;;;;;;;;2083712;28;19916;-82
2022/01/17 05:46:31;;;;;;;;;;;;;;;;;;2086585;28;20340;-82
2022/01/17 05:47:50;;;;;;;;;;;;;;;;;;2086980;28;19954;-83
2022/01/17 05:49:09;;;;;;;;;;;;;;;;;;2086081;28;20361;-82
2022/01/17 05:50:31;;;;;;;;;;;;;;;;;;2086206;28;19912;-83
2022/01/17 05:51:52;;;;;;;;;;;;;;;;;;2087042;28;19916;-83
2022/01/17 05:53:12;;;;;;;;;;;;;;;;;;2089110;28;19908;-84
2022/01/17 05:54:30;;;;;;;;;;;;;;;;;;2087699;28;19920;-86
2022/01/17 05:55:52;;;;;;;;;;;;;;;;;;2089188;28;20008;-82
2022/01/17 05:57:11;;;;;;;;;;;;;;;;;;2084575;28;20377;-85
2022/01/17 05:58:30;;;;;;;;;;;;;;;;;;2090182;28;19917;-88
2022/01/17 05:59:49;;;;;;;;;;;;;;;;;;2086612;28;19913;-85
2022/01/17 06:01:09;;;;;;;;;;;;;;;;;;2083411;28;19921;-82
2022/01/17 06:02:28;;;;;;;;;;;;;;;;;;2089139;28;19908;-83
2022/01/17 06:03:50;;;;;;;;;;;;;;;;;;2086938;28;19908;-80
2022/01/17 06:05:09;;;;;;;;;;;;;;;;;;2099219;28;19912;-85
2022/01/17 06:06:28;;;;;;;;;;;;;;;;;;2089911;28;19912;-83
2022/01/17 06:07:47;;;;;;;;;;;;;;;;;;2085677;28;19924;-81
2022/01/17 06:09:07;;;;;;;;;;;;;;;;;;2095135;28;19909;-85
2022/01/17 06:10:27;;;;;;;;;;;;;;;;;;2091396;28;20289;-81
2022/01/17 06:11:46;;;;;;;;;;;;;;;;;;2089435;28;19999;-91
2022/01/17 06:13:04;;;;;;;;;;;;;;;;;;2095273;28;19955;-82
2022/01/17 06:14:23;;;;;;;;;;;;;;;;;;2091586;28;20362;-81
2022/01/17 06:15:42;;;;;;;;;;;;;;;;;;2092305;28;20010;-81
2022/01/17 06:17:01;;;;;;;;;;;;;;;;;;2090700;28;19920;-82
2022/01/17 06:18:20;;;;;;;;;;;;;;;;;;2089028;28;20365;-80
2022/01/17 06:19:39;;;;;;;;;;;;;;;;;;2091573;28;19912;-82
2022/01/17 06:20:57;;;;;;;;;;;;;;;;;;2096440;28;19909;-81
2022/01/17 06:22:17;;;;;;;;;;;;;;;;;;2091326;28;19913;-80
2022/01/17 06:23:35;;;;;;;;;;;;;;;;;;2097110;28;19920;-80
2022/01/17 06:24:54;;;;;;;;;;;;;;;;;;2091737;28;19952;-80
2022/01/17 06:26:13;;;;;;;;;;;;;;;;;;2089513;28;19916;-80
2022/01/17 06:27:32;;;;;;;;;;;;;;;;;;2087343;28;19913;-80
2022/01/17 06:28:50;;;;;;;;;;;;;;;;;;2089751;28;19921;-81
2022/01/17 06:30:11;;;;;;;;;;;;;;;;;;2089366;28;19920;-80
2022/01/17 06:31:30;;;;;;;;;;;;;;;;;;2090464;28;20377;-78
2022/01/17 06:32:48;;;;;;;;;;;;;;;;;;2090784;28;19952;-79
2022/01/17 06:34:07;;;;;;;;;;;;;;;;;;2091704;28;19909;-79
2022/01/17 06:35:26;;;;;;;;;;;;;;;;;;2093142;28;19953;-81
2022/01/17 06:36:44;;;;;;;;;;;;;;;;;;2090242;28;21148;-80
2022/01/17 06:38:03;;;;;;;;;;;;;;;;;;2089452;28;19908;-78
2022/01/17 06:39:22;;;;;;;;;;;;;;;;;;2088349;28;19909;-80
2022/01/17 06:40:41;;;;;;;;;;;;;;;;;;2088870;28;19948;-81
2022/01/17 06:42:00;;;;;;;;;;;;;;;;;;2095708;28;20369;-79
2022/01/17 06:43:19;;;;;;;;;;;;;;;;;;2098604;28;19917;-81
2022/01/17 06:44:38;;;;;;;;;;;;;;;;;;2090671;28;20003;-78
2022/01/17 06:45:57;;;;;;;;;;;;;;;;;;2092125;28;19916;-81
2022/01/17 06:47:16;;;;;;;;;;;;;;;;;;2088115;28;20305;-83
2022/01/17 06:48:34;;;;;;;;;;;;;;;;;;2088293;28;19999;-79
2022/01/17 06:49:53;;;;;;;;;;;;;;;;;;2086327;28;19917;-81
2022/01/17 06:51:12;;;;;;;;;;;;;;;;;;2096308;28;20292;-81
2022/01/17 06:52:31;;;;;;;;;;;;;;;;;;2092019;28;19917;-79
2022/01/17 06:53:50;;;;;;;;;;;;;;;;;;2085512;28;20332;-81
2022/01/17 06:55:09;;;;;;;;;;;;;;;;;;2088968;28;19920;-81
2022/01/17 06:56:28;;;;;;;;;;;;;;;;;;2090025;28;19913;-81
2022/01/17 06:57:47;;;;;;;;;;;;;;;;;;2091260;28;19917;-82
2022/01/17 06:59:05;;;;;;;;;;;;;;;;;;2088622;28;19975;-84
2022/01/17 07:00:24;;;;;;;;;;;;;;;;;;2087556;28;19916;-83
2022/01/17 07:01:43;;;;;;;;;;;;;;;;;;2087881;28;19921;-86
2022/01/17 07:03:02;;;;;;;;;;;;;;;;;;2089995;28;20365;-82
2022/01/17 07:04:21;;;;;;;;;;;;;;;;;;2090727;28;19921;-82
2022/01/17 07:05:40;;;;;;;;;;;;;;;;;;2089132;28;19908;-81
2022/01/17 07:06:58;;;;;;;;;;;;;;;;;;2086445;28;20309;-81
2022/01/17 07:08:17;;;;;;;;;;;;;;;;;;2087139;28;19920;-81
2022/01/17 07:09:36;;;;;;;;;;;;;;;;;;2096418;28;20020;-83
2022/01/17 07:10:55;;;;;;;;;;;;;;;;;;2092346;28;20297;-80
2022/01/17 07:12:14;;;;;;;;;;;;;;;;;;2087387;28;19913;-80
2022/01/17 07:13:32;;;;;;;;;;;;;;;;;;2090085;28;19913;-79
2022/01/17 07:14:51;;;;;;;;;;;;;;;;;;2096981;28;20361;-82
2022/01/17 07:16:10;;;;;;;;;;;;;;;;;;2090086;28;20369;-85
2022/01/17 07:17:29;;;;;;;;;;;;;;;;;;2085780;28;19963;-81
2022/01/17 07:18:48;;;;;;;;;;;;;;;;;;2089666;28;19956;-82
2022/01/17 07:20:07;;;;;;;;;;;;;;;;;;2093047;28;19991;-82
2022/01/17 07:21:25;;;;;;;;;;;;;;;;;;2090929;28;19921;-82
2022/01/17 07:22:44;;;;;;;;;;;;;;;;;;2089342;28;19939;-80
2022/01/17 07:24:03;;;;;;;;;;;;;;;;;;2087898;28;19932;-81
2022/01/17 07:25:22;;;;;;;;;;;;;;;;;;2089704;28;19916;-81
2022/01/17 07:26:40;;;;;;;;;;;;;;;;;;2087316;28;19975;-80
2022/01/17 07:27:59;;;;;;;;;;;;;;;;;;2095083;28;19917;-80
2022/01/17 07:29:18;;;;;;;;;;;;;;;;;;2093791;28;19909;-79
2022/01/17 07:30:37;;;;;;;;;;;;;;;;;;2087378;28;19917;-82
2022/01/17 07:31:55;;;;;;;;;;;;;;;;;;2088981;28;20099;-80
2022/01/17 07:33:14;;;;;;;;;;;;;;;;;;2088203;28;20293;-81
2022/01/17 07:34:33;;;;;;;;;;;;;;;;;;2088381;28;19930;-81
2022/01/17 07:35:52;;;;;;;;;;;;;;;;;;2091883;28;19912;-81
2022/01/17 07:37:11;;;;;;;;;;;;;;;;;;2095812;28;19976;-81
2022/01/17 07:38:30;;;;;;;;;;;;;;;;;;2088358;28;19913;-81
2022/01/17 07:39:49;;;;;;;;;;;;;;;;;;2086297;28;19940;-81
2022/01/17 07:41:08;;;;;;;;;;;;;;;;;;2090954;28;19909;-82
2022/01/17 07:42:28;;;;;;;;;;;;;;;;;;2087804;28;20085;-82
2022/01/17 07:43:48;;;;;;;;;;;;;;;;;;2087256;28;19913;-82
2022/01/17 07:45:13;;;;;;;;;;;;;;;;;;2095178;28;19916;-84
2022/01/17 07:46:36;;;;;;;;;;;;;;;;;;2091973;28;19948;-81
2022/01/17 07:49:19;;;;;;;;;;;;;;;;;;2094377;28;19920;-81
2022/01/17 07:50:39;;;;;;;;;;;;;;;;;;2090462;28;19916;-80
2022/01/17 07:51:59;;;;;;;;;;;;;;;;;;2087610;28;19909;-82
2022/01/17 07:53:18;;;;;;;;;;;;;;;;;;2086855;28;19940;-82
2022/01/17 07:54:43;;;;;;;;;;;;;;;;;;2090290;28;20374;-80
2022/01/17 07:56:02;;;;;;;;;;;;;;;;;;2087626;28;19979;-80
2022/01/17 07:57:21;;;;;;;;;;;;;;;;;;2085685;28;20345;-80
2022/01/17 07:58:41;;;;;;;;;;;;;;;;;;2097163;28;19913;-80
2022/01/17 08:00:00;;;;;;;;;;;;;;;;;;2090362;28;20031;-80
2022/01/17 08:01:20;;;;;;;;;;;;;;;;;;2087902;28;20377;-79
2022/01/17 08:02:39;;;;;;;;;;;;;;;;;;2085608;28;20369;-81
2022/01/17 08:03:57;;;;;;;;;;;;;;;;;;2090743;28;19948;-80
2022/01/17 08:05:16;;;;;;;;;;;;;;;;;;2086542;28;19921;-81
2022/01/17 08:06:38;;;;;;;;;;;;;;;;;;2095227;28;19916;-79
2022/01/17 08:07:57;;;;;;;;;;;;;;;;;;2089407;28;20357;-80
2022/01/17 08:09:16;;;;;;;;;;;;;;;;;;2088576;28;19908;-84
2022/01/17 08:10:36;;;;;;;;;;;;;;;;;;2090773;28;19912;-81
2022/01/17 08:11:55;;;;;;;;;;;;;;;;;;2091197;28;19922;-80
2022/01/17 08:13:14;;;;;;;;;;;;;;;;;;2089212;28;19959;-80
2022/01/17 08:14:32;;;;;;;;;;;;;;;;;;2097223;28;19929;-79
2022/01/17 08:15:51;;;;;;;;;;;;;;;;;;2090181;28;19913;-79
2022/01/17 08:17:11;;;;;;;;;;;;;;;;;;2086763;28;19909;-80
2022/01/17 08:18:30;;;;;;;;;;;;;;;;;;2088150;28;19916;-79
2022/01/17 08:19:49;;;;;;;;;;;;;;;;;;2096086;28;20373;-78
2022/01/17 08:21:07;;;;;;;;;;;;;;;;;;2099908;28;19908;-78
2022/01/17 08:22:26;;;;;;;;;;;;;;;;;;2090961;28;19917;-79
2022/01/17 08:23:45;;;;;;;;;;;;;;;;;;2086665;28;20293;-79
2022/01/17 08:25:04;;;;;;;;;;;;;;;;;;2088671;28;19908;-79
2022/01/17 08:26:23;;;;;;;;;;;;;;;;;;2088974;28;19944;-80
2022/01/17 08:27:42;;;;;;;;;;;;;;;;;;2086475;28;19920;-79
2022/01/17 08:29:01;;;;;;;;;;;;;;;;;;2087111;28;19917;-80
2022/01/17 08:30:20;;;;;;;;;;;;;;;;;;2090179;28;19917;-79
2022/01/17 08:31:39;;;;;;;;;;;;;;;;;;2095055;28;19920;-80
2022/01/17 08:32:58;;;;;;;;;;;;;;;;;;2095163;28;20028;-80
2022/01/17 08:34:17;;;;;;;;;;;;;;;;;;2091472;28;20336;-81
2022/01/17 08:35:36;;;;;;;;;;;;;;;;;;2086304;28;19924;-81
2022/01/17 08:36:55;;;;;;;;;;;;;;;;;;2088201;28;20019;-83
2022/01/17 08:38:14;;;;;;;;;;;;;;;;;;2088973;28;20300;-85
2022/01/17 08:39:33;;;;;;;;;;;;;;;;;;2089594;28;19917;-86
2022/01/17 08:40:51;;;;;;;;;;;;;;;;;;2089489;28;20356;-82
2022/01/17 08:42:11;;;;;;;;;;;;;;;;;;2097957;28;19916;-81
2022/01/17 08:43:30;;;;;;;;;;;;;;;;;;2092487;28;20448;-86
2022/01/17 08:44:50;;;;;;;;;;;;;;;;;;2090594;28;19913;-84
2022/01/17 08:46:09;;;;;;;;;;;;;;;;;;2101104;28;19912;-87
2022/01/17 08:47:28;;;;;;;;;;;;;;;;;;2093590;28;19917;-85
2022/01/17 08:48:46;;;;;;;;;;;;;;;;;;2089793;28;19912;-86
2022/01/17 08:50:05;;;;;;;;;;;;;;;;;;2089355;28;19964;-86
2022/01/17 08:51:24;;;;;;;;;;;;;;;;;;2091072;28;19917;-85
2022/01/17 08:52:43;;;;;;;;;;;;;;;;;;2090716;28;19912;-85
2022/01/17 08:54:02;;;;;;;;;;;;;;;;;;2087705;28;19909;-85
2022/01/17 08:55:25;;;;;;;;;;;;;;;;;;2088635;28;19908;-86
2022/01/17 08:56:43;;;;;;;;;;;;;;;;;;2089543;28;19908;-87
2022/01/17 08:58:03;;;;;;;;;;;;;;;;;;2090433;28;19912;-87
2022/01/17 08:59:22;;;;;;;;;;;;;;;;;;2091741;28;19921;-87
2022/01/17 09:00:41;;;;;;;;;;;;;;;;;;2092586;28;19916;-87
2022/01/17 09:01:59;;;;;;;;;;;;;;;;;;2091181;28;20082;-86
2022/01/17 09:03:19;;;;;;;;;;;;;;;;;;2094463;28;19908;-85
2022/01/17 09:04:41;;;;;;;;;;;;;;;;;;2092936;28;19940;-84
2022/01/17 09:05:59;;;;;;;;;;;;;;;;;;2094304;28;19909;-87
2022/01/17 09:07:18;;;;;;;;;;;;;;;;;;2092199;28;19923;-82
2022/01/17 09:08:37;;;;;;;;;;;;;;;;;;2089778;28;19912;-85
2022/01/17 09:09:56;;;;;;;;;;;;;;;;;;2088118;28;19921;-81
2022/01/17 09:11:15;;;;;;;;;;;;;;;;;;2089628;28;19913;-85
2022/01/17 09:12:34;;;;;;;;;;;;;;;;;;2089531;28;19952;-82
2022/01/17 09:13:53;;;;;;;;;;;;;;;;;;2091912;28;19924;-81
2022/01/17 09:15:11;;;;;;;;;;;;;;;;;;2088212;28;20417;-80
2022/01/17 09:16:30;;;;;;;;;;;;;;;;;;2092608;28;20341;-82
2022/01/17 09:17:49;;;;;;;;;;;;;;;;;;2090249;28;19940;-82
2022/01/17 09:19:08;;;;;;;;;;;;;;;;;;2097933;28;19955;-81